createdAt,value
2022-07-31T00:00:24.037Z,4.70
2022-07-31T00:02:51.907Z,4.90
2022-07-31T00:05:19.645Z,4.60
2022-07-31T00:07:47.404Z,4.73
2022-07-31T00:10:15.176Z,5.23
2022-07-31T00:12:44.221Z,5.53
2022-07-31T00:15:13.601Z,5.77
2022-07-31T00:17:43.451Z,4.93
2022-07-31T00:20:14.334Z,5.00
2022-07-31T00:22:42.304Z,5.27
2022-07-31T00:25:11.705Z,5.27
2022-07-31T00:27:39.505Z,5.40
2022-07-31T00:30:09.856Z,5.37
2022-07-31T00:32:37.515Z,5.03
2022-07-31T00:35:05.793Z,5.67
2022-07-31T00:37:36.515Z,6.00
2022-07-31T00:40:05.923Z,5.57
2022-07-31T00:42:33.773Z,5.60
2022-07-31T00:45:01.605Z,5.00
2022-07-31T00:47:30.668Z,5.73
2022-07-31T00:49:58.729Z,5.17
2022-07-31T00:52:26.487Z,5.23
2022-07-31T00:54:54.236Z,5.93
2022-07-31T00:57:22.008Z,6.97
2022-07-31T00:59:49.810Z,6.57
2022-07-31T01:02:17.574Z,7.40
2022-07-31T01:04:46.601Z,7.33
2022-07-31T01:07:14.383Z,7.40
2022-07-31T01:09:42.748Z,6.93
2022-07-31T01:12:15.714Z,8.20
2022-07-31T01:14:49.394Z,6.10
2022-07-31T01:17:19.115Z,6.10
2022-07-31T01:19:49.900Z,6.77
2022-07-31T01:22:45.618Z,6.63
2022-07-31T01:25:18.544Z,7.50
2022-07-31T01:28:01.058Z,6.60
2022-07-31T01:30:34.602Z,5.60
2022-07-31T01:33:07.567Z,5.90
2022-07-31T01:35:41.074Z,6.20
2022-07-31T01:38:12.645Z,6.57
2022-07-31T01:40:44.787Z,6.70
2022-07-31T01:43:16.329Z,6.70
2022-07-31T01:45:48.141Z,6.17
2022-07-31T01:48:17.195Z,6.03
2022-07-31T01:50:47.808Z,5.60
2022-07-31T01:53:21.724Z,5.10
2022-07-31T01:56:02.650Z,5.83
2022-07-31T01:58:35.630Z,5.70
2022-07-31T02:01:08.210Z,5.97
2022-07-31T02:03:42.875Z,5.50
2022-07-31T02:06:14.697Z,6.40
2022-07-31T02:08:45.022Z,5.50
2022-07-31T02:11:14.092Z,5.33
2022-07-31T02:13:41.955Z,4.87
2022-07-31T02:16:11.954Z,5.40
2022-07-31T02:18:40.510Z,4.87
2022-07-31T02:21:08.818Z,5.33
2022-07-31T02:23:38.322Z,5.50
2022-07-31T02:26:07.180Z,5.67
2022-07-31T02:28:37.982Z,5.10
2022-07-31T02:31:08.173Z,5.30
2022-07-31T02:33:38.441Z,5.77
2022-07-31T02:36:07.782Z,5.70
2022-07-31T02:38:37.422Z,6.20
2022-07-31T02:41:06.127Z,5.83
2022-07-31T02:43:36.125Z,5.63
2022-07-31T02:46:04.887Z,6.17
2022-07-31T02:48:33.486Z,6.77
2022-07-31T02:51:02.713Z,6.03
2022-07-31T02:53:31.494Z,6.60
2022-07-31T02:56:01.082Z,6.20
2022-07-31T02:58:28.806Z,6.47
2022-07-31T03:01:01.250Z,6.50
2022-07-31T03:03:29.106Z,6.20
2022-07-31T03:05:57.152Z,6.73
2022-07-31T03:08:26.624Z,6.83
2022-07-31T03:10:54.493Z,6.20
2022-07-31T03:13:25.479Z,6.43
2022-07-31T03:15:53.791Z,6.00
2022-07-31T03:18:22.639Z,5.77
2022-07-31T03:20:52.570Z,6.40
2022-07-31T03:23:22.325Z,6.67
2022-07-31T03:25:52.464Z,6.43
2022-07-31T03:28:20.856Z,6.37
2022-07-31T03:30:51.509Z,6.30
2022-07-31T03:33:24.243Z,6.57
2022-07-31T03:35:53.159Z,6.10
2022-07-31T03:38:40.571Z,6.00
2022-07-31T03:41:10.683Z,5.87
2022-07-31T03:43:46.787Z,5.47
2022-07-31T03:46:17.947Z,6.90
2022-07-31T03:48:46.572Z,6.13
2022-07-31T03:51:15.027Z,6.00
2022-07-31T03:53:43.793Z,6.53
2022-07-31T03:56:13.608Z,6.13
2022-07-31T03:58:41.442Z,5.73
2022-07-31T04:01:12.207Z,6.77
2022-07-31T04:03:40.640Z,5.87
2022-07-31T04:06:09.124Z,8.07
2022-07-31T04:08:36.866Z,5.80
2022-07-31T04:11:04.735Z,6.17
2022-07-31T04:13:33.781Z,6.47
2022-07-31T04:16:01.473Z,6.00
2022-07-31T04:18:29.168Z,6.23
2022-07-31T04:20:56.939Z,5.93
2022-07-31T04:23:32.277Z,5.80
2022-07-31T04:26:00.832Z,5.97
2022-07-31T04:28:28.542Z,8.77
2022-07-31T04:30:58.078Z,6.73
2022-07-31T04:33:25.864Z,6.50
2022-07-31T04:35:53.893Z,7.13
2022-07-31T04:38:21.712Z,6.57
2022-07-31T04:40:49.781Z,7.33
2022-07-31T04:43:17.860Z,6.67
2022-07-31T04:45:45.790Z,6.70
2022-07-31T04:48:14.904Z,6.87
2022-07-31T04:50:42.635Z,6.20
2022-07-31T04:53:10.324Z,7.30
2022-07-31T04:55:38.172Z,6.47
2022-07-31T04:58:05.966Z,7.23
2022-07-31T05:00:33.678Z,6.83
2022-07-31T05:03:01.389Z,6.40
2022-07-31T05:05:30.476Z,6.37
2022-07-31T05:07:58.173Z,6.87
2022-07-31T05:10:46.133Z,6.43
2022-07-31T05:13:13.911Z,7.20
2022-07-31T05:15:44.450Z,6.60
2022-07-31T05:18:12.911Z,6.30
2022-07-31T05:20:42.083Z,7.40
2022-07-31T05:23:09.780Z,6.77
2022-07-31T05:25:37.649Z,7.27
2022-07-31T05:28:09.715Z,7.13
2022-07-31T05:30:37.886Z,7.30
2022-07-31T05:33:06.811Z,7.57
2022-07-31T05:35:34.595Z,6.67
2022-07-31T05:38:03.683Z,6.77
2022-07-31T05:40:31.445Z,6.83
2022-07-31T05:42:59.237Z,6.87
2022-07-31T05:45:26.961Z,7.10
2022-07-31T05:47:54.595Z,6.90
2022-07-31T05:50:23.211Z,7.00
2022-07-31T05:52:51.088Z,7.20
2022-07-31T05:55:20.173Z,6.70
2022-07-31T05:57:48.159Z,6.17
2022-07-31T06:00:17.053Z,6.87
2022-07-31T06:02:45.477Z,6.83
2022-07-31T06:05:13.207Z,6.23
2022-07-31T06:07:41.545Z,6.10
2022-07-31T06:10:21.190Z,6.60
2022-07-31T06:12:49.220Z,6.50
2022-07-31T06:15:17.741Z,6.33
2022-07-31T06:17:46.097Z,6.30
2022-07-31T06:20:14.909Z,6.37
2022-07-31T06:22:44.113Z,6.33
2022-07-31T06:25:13.280Z,6.20
2022-07-31T06:27:44.081Z,6.77
2022-07-31T06:30:16.668Z,6.30
2022-07-31T06:32:44.578Z,7.00
2022-07-31T06:35:12.429Z,5.60
2022-07-31T06:37:40.284Z,6.33
2022-07-31T06:40:09.084Z,6.03
2022-07-31T06:42:37.731Z,6.00
2022-07-31T06:45:08.688Z,6.23
2022-07-31T06:47:36.529Z,6.00
2022-07-31T06:50:05.595Z,6.30
2022-07-31T06:52:33.392Z,6.80
2022-07-31T06:55:01.423Z,6.67
2022-07-31T06:57:29.189Z,6.33
2022-07-31T06:59:56.934Z,5.93
2022-07-31T07:02:26.132Z,5.37
2022-07-31T07:04:57.359Z,6.40
2022-07-31T07:07:36.353Z,5.77
2022-07-31T07:10:04.913Z,4.83
2022-07-31T07:12:34.810Z,5.87
2022-07-31T07:15:02.563Z,5.73
2022-07-31T07:17:31.880Z,4.77
2022-07-31T07:19:59.674Z,4.70
2022-07-31T07:22:31.311Z,4.43
2022-07-31T07:24:59.854Z,4.63
2022-07-31T07:27:27.683Z,4.80
2022-07-31T07:29:55.403Z,5.27
2022-07-31T07:32:23.593Z,3.80
2022-07-31T07:34:59.569Z,7.13
2022-07-31T07:37:28.577Z,6.53
2022-07-31T07:39:56.386Z,9.07
2022-07-31T07:42:24.109Z,3.27
2022-07-31T07:44:51.928Z,4.73
2022-07-31T07:47:19.568Z,4.80
2022-07-31T07:49:47.256Z,3.63
2022-07-31T07:52:16.498Z,4.00
2022-07-31T07:54:44.491Z,3.90
2022-07-31T07:57:15.870Z,4.00
2022-07-31T07:59:43.655Z,5.77
2022-07-31T08:02:12.313Z,4.50
2022-07-31T08:04:41.252Z,3.90
2022-07-31T08:07:10.373Z,3.70
2022-07-31T08:09:39.494Z,3.73
2022-07-31T08:12:07.642Z,4.73
2022-07-31T08:14:35.504Z,3.57
2022-07-31T08:17:03.126Z,3.53
2022-07-31T08:19:30.967Z,5.10
2022-07-31T08:21:58.636Z,4.00
2022-07-31T08:24:26.440Z,4.70
2022-07-31T08:27:13.255Z,3.67
2022-07-31T08:29:43.473Z,3.77
2022-07-31T08:32:11.472Z,3.67
2022-07-31T08:34:42.089Z,3.00
2022-07-31T08:38:01.477Z,3.50
2022-07-31T08:39:58.232Z,3.50
2022-07-31T08:42:27.286Z,3.83
2022-07-31T08:44:55.624Z,3.73
2022-07-31T08:47:26.705Z,3.80
2022-07-31T08:49:55.948Z,3.70
2022-07-31T08:52:26.249Z,4.23
2022-07-31T08:54:55.351Z,4.57
2022-07-31T08:57:23.300Z,4.03
2022-07-31T08:59:54.614Z,3.87
2022-07-31T09:02:22.363Z,3.30
2022-07-31T09:04:52.771Z,3.70
2022-07-31T09:07:20.766Z,3.60
2022-07-31T09:09:51.595Z,3.27
2022-07-31T09:12:33.440Z,2.87
2022-07-31T09:15:03.449Z,2.83
2022-07-31T09:17:35.405Z,3.13
2022-07-31T09:20:05.619Z,3.17
2022-07-31T09:22:33.869Z,3.23
2022-07-31T09:25:11.957Z,2.80
2022-07-31T09:27:40.098Z,3.00
2022-07-31T09:30:10.927Z,2.73
2022-07-31T09:32:38.710Z,3.00
2022-07-31T09:35:11.713Z,3.20
2022-07-31T09:37:40.370Z,3.20
2022-07-31T09:40:10.254Z,3.00
2022-07-31T09:42:45.596Z,2.90
2022-07-31T09:45:23.793Z,3.57
2022-07-31T09:48:04.331Z,3.07
2022-07-31T09:50:32.305Z,2.80
2022-07-31T09:53:01.597Z,2.93
2022-07-31T09:55:29.846Z,3.10
2022-07-31T09:57:59.579Z,3.20
2022-07-31T10:00:29.433Z,2.87
2022-07-31T10:02:58.432Z,2.80
2022-07-31T10:05:28.444Z,2.93
2022-07-31T10:08:00.265Z,4.30
2022-07-31T10:10:31.044Z,3.13
2022-07-31T10:13:03.076Z,3.17
2022-07-31T10:15:37.225Z,3.20
2022-07-31T10:18:08.522Z,2.80
2022-07-31T10:20:38.075Z,3.30
2022-07-31T10:23:11.851Z,3.30
2022-07-31T10:25:53.263Z,2.97
2022-07-31T10:28:23.050Z,3.27
2022-07-31T10:30:52.707Z,2.90
2022-07-31T10:33:43.177Z,3.10
2022-07-31T10:36:15.469Z,2.93
2022-07-31T10:38:51.668Z,5.83
2022-07-31T10:41:32.035Z,3.00
2022-07-31T10:44:02.079Z,3.00
2022-07-31T10:46:33.515Z,6.47
2022-07-31T10:49:08.320Z,3.70
2022-07-31T10:51:47.305Z,3.00
2022-07-31T10:54:15.704Z,3.13
2022-07-31T10:56:47.446Z,3.20
2022-07-31T10:59:15.176Z,3.80
2022-07-31T11:01:53.006Z,3.20
2022-07-31T11:04:28.412Z,2.90
2022-07-31T11:06:56.281Z,4.10
2022-07-31T11:09:24.688Z,3.30
2022-07-31T11:11:52.919Z,3.50
2022-07-31T11:14:32.318Z,2.77
2022-07-31T11:17:01.520Z,2.80
2022-07-31T11:19:41.168Z,2.83
2022-07-31T11:22:32.612Z,2.60
2022-07-31T11:25:01.117Z,3.30
2022-07-31T11:27:32.087Z,2.70
2022-07-31T11:30:12.382Z,4.47
2022-07-31T11:32:42.652Z,2.93
2022-07-31T11:35:10.447Z,3.20
2022-07-31T11:37:56.569Z,2.77
2022-07-31T11:40:26.527Z,2.80
2022-07-31T11:43:24.164Z,3.50
2022-07-31T11:45:48.242Z,3.00
2022-07-31T11:48:19.045Z,3.03
2022-07-31T11:50:47.738Z,3.40
2022-07-31T11:53:15.635Z,3.37
2022-07-31T11:55:51.060Z,3.10
2022-07-31T11:58:20.038Z,2.80
2022-07-31T12:00:49.524Z,2.83
2022-07-31T12:03:19.883Z,4.43
2022-07-31T12:05:50.601Z,3.30
2022-07-31T12:08:18.717Z,2.77
2022-07-31T12:10:47.424Z,4.77
2022-07-31T12:13:17.297Z,2.73
2022-07-31T12:15:59.498Z,2.80
2022-07-31T12:18:30.388Z,3.23
2022-07-31T12:21:00.620Z,2.50
2022-07-31T12:23:41.283Z,2.77
2022-07-31T12:26:11.678Z,2.80
2022-07-31T12:28:39.525Z,2.73
2022-07-31T12:31:07.226Z,3.83
2022-07-31T12:33:44.092Z,2.70
2022-07-31T12:36:16.183Z,2.90
2022-07-31T12:38:45.342Z,3.20
2022-07-31T12:41:16.168Z,3.30
2022-07-31T12:43:51.595Z,2.93
2022-07-31T12:46:21.507Z,3.40
2022-07-31T12:48:50.820Z,3.80
2022-07-31T12:51:43.866Z,3.30
2022-07-31T12:54:08.978Z,2.93
2022-07-31T12:56:37.310Z,3.60
2022-07-31T12:59:05.721Z,3.00
2022-07-31T13:01:34.130Z,3.47
2022-07-31T13:04:07.948Z,3.83
2022-07-31T13:06:45.938Z,12.47
2022-07-31T13:09:13.729Z,10.30
2022-07-31T13:11:45.942Z,3.50
2022-07-31T13:14:15.860Z,3.30
2022-07-31T13:16:43.657Z,3.33
2022-07-31T13:19:13.044Z,3.23
2022-07-31T13:21:49.635Z,2.70
2022-07-31T13:24:18.950Z,3.07
2022-07-31T13:26:47.111Z,5.40
2022-07-31T13:29:14.878Z,3.30
2022-07-31T13:31:42.745Z,2.97
2022-07-31T13:34:11.894Z,2.80
2022-07-31T13:36:40.075Z,2.70
2022-07-31T13:39:08.252Z,3.10
2022-07-31T13:41:36.082Z,3.27
2022-07-31T13:44:06.748Z,2.90
2022-07-31T13:46:34.704Z,2.40
2022-07-31T13:49:08.227Z,2.37
2022-07-31T13:51:38.437Z,2.70
2022-07-31T13:54:06.958Z,2.50
2022-07-31T13:56:42.169Z,2.30
2022-07-31T13:59:12.129Z,2.40
2022-07-31T14:02:04.615Z,2.00
2022-07-31T14:04:28.539Z,2.40
2022-07-31T14:07:03.419Z,2.57
2022-07-31T14:09:34.157Z,2.30
2022-07-31T14:12:05.771Z,2.10
2022-07-31T14:14:33.764Z,2.50
2022-07-31T14:17:01.498Z,2.83
2022-07-31T14:19:29.267Z,3.00
2022-07-31T14:21:57.555Z,2.73
2022-07-31T14:24:27.419Z,2.80
2022-07-31T14:26:55.269Z,2.87
2022-07-31T14:29:23.086Z,2.33
2022-07-31T14:31:51.300Z,3.00
2022-07-31T14:34:19.146Z,1.93
2022-07-31T14:36:46.807Z,3.00
2022-07-31T14:39:15.821Z,2.00
2022-07-31T14:41:45.206Z,2.00
2022-07-31T14:44:19.501Z,2.80
2022-07-31T14:46:50.055Z,2.70
2022-07-31T14:49:17.889Z,2.30
2022-07-31T14:51:46.358Z,2.93
2022-07-31T14:54:14.126Z,2.40
2022-07-31T14:59:31.060Z,3.10
2022-07-31T15:01:59.085Z,4.20
2022-07-31T15:04:26.803Z,3.10
2022-07-31T15:07:12.695Z,2.47
2022-07-31T15:09:42.171Z,2.40
2022-07-31T15:12:12.209Z,2.27
2022-07-31T15:14:41.467Z,2.43
2022-07-31T15:17:09.298Z,2.07
2022-07-31T15:19:37.090Z,2.23
2022-07-31T15:22:10.643Z,2.43
2022-07-31T15:24:48.898Z,4.50
2022-07-31T15:27:17.409Z,2.97
2022-07-31T15:30:05.485Z,5.37
2022-07-31T15:32:34.739Z,6.20
2022-07-31T15:35:03.372Z,2.40
2022-07-31T15:37:31.251Z,4.73
2022-07-31T15:40:02.575Z,4.70
2022-07-31T15:42:31.639Z,4.67
2022-07-31T15:45:01.187Z,4.97
2022-07-31T15:47:29.033Z,12.33
2022-07-31T15:49:56.848Z,6.03
2022-07-31T15:52:24.827Z,11.03
2022-07-31T15:54:52.926Z,7.47
2022-07-31T15:57:20.987Z,5.10
2022-07-31T15:59:49.461Z,4.67
2022-07-31T16:02:18.736Z,2.50
2022-07-31T16:04:53.366Z,2.10
2022-07-31T16:08:32.247Z,2.50
2022-07-31T16:10:15.241Z,2.90
2022-07-31T16:12:45.088Z,2.77
2022-07-31T16:15:13.599Z,2.67
2022-07-31T16:17:43.085Z,8.90
2022-07-31T16:20:12.779Z,7.63
2022-07-31T16:22:42.168Z,2.83
2022-07-31T16:25:11.725Z,2.73
2022-07-31T16:27:40.547Z,3.50
2022-07-31T16:30:09.260Z,2.97
2022-07-31T16:32:37.050Z,2.00
2022-07-31T16:35:07.481Z,2.13
2022-07-31T16:37:51.369Z,2.10
2022-07-31T16:40:26.876Z,2.17
2022-07-31T16:43:00.867Z,2.43
2022-07-31T16:45:29.527Z,2.63
2022-07-31T16:47:57.365Z,2.30
2022-07-31T16:50:27.162Z,2.80
2022-07-31T16:52:55.451Z,2.37
2022-07-31T16:55:53.105Z,2.60
2022-07-31T16:58:12.638Z,2.37
2022-07-31T17:00:40.657Z,3.00
2022-07-31T17:03:59.267Z,2.43
2022-07-31T17:05:57.811Z,2.20
2022-07-31T17:08:25.654Z,2.03
2022-07-31T17:10:54.838Z,3.30
2022-07-31T17:13:23.215Z,2.37
2022-07-31T17:15:51.138Z,2.60
2022-07-31T17:18:24.788Z,2.13
2022-07-31T17:20:52.888Z,3.93
2022-07-31T17:23:43.512Z,2.47
2022-07-31T17:26:20.806Z,7.30
2022-07-31T17:28:50.067Z,4.07
2022-07-31T17:31:18.270Z,3.80
2022-07-31T17:34:00.758Z,3.27
2022-07-31T17:36:30.003Z,16.33
2022-07-31T17:38:59.162Z,8.77
2022-07-31T17:41:27.075Z,3.00
2022-07-31T17:43:55.352Z,2.40
2022-07-31T17:46:34.674Z,3.87
2022-07-31T17:49:05.890Z,11.67
2022-07-31T17:51:34.209Z,8.30
2022-07-31T17:54:04.005Z,3.00
2022-07-31T17:56:31.715Z,5.13
2022-07-31T17:59:04.534Z,5.23
2022-07-31T18:01:33.570Z,3.40
2022-07-31T18:04:01.839Z,3.50
2022-07-31T18:06:30.167Z,8.17
2022-07-31T18:08:58.172Z,12.83
2022-07-31T18:11:27.700Z,6.30
2022-07-31T18:13:55.710Z,6.97
2022-07-31T18:16:30.894Z,4.47
2022-07-31T18:18:58.760Z,13.40
2022-07-31T18:21:26.692Z,6.60
2022-07-31T18:23:54.375Z,4.07
2022-07-31T18:26:23.032Z,3.37
2022-07-31T18:28:52.085Z,4.03
2022-07-31T18:31:31.595Z,3.97
2022-07-31T18:34:01.918Z,3.23
2022-07-31T18:36:29.595Z,2.93
2022-07-31T18:38:57.656Z,3.53
2022-07-31T18:41:25.901Z,4.27
2022-07-31T18:43:55.707Z,4.10
2022-07-31T18:46:24.852Z,3.77
2022-07-31T18:48:55.792Z,3.80
2022-07-31T18:51:24.193Z,3.03
2022-07-31T18:54:08.405Z,3.47
2022-07-31T18:56:36.202Z,5.60
2022-07-31T18:59:05.658Z,3.13
2022-07-31T19:01:33.585Z,4.90
2022-07-31T19:04:03.854Z,3.80
2022-07-31T19:06:31.927Z,3.80
2022-07-31T19:08:59.669Z,3.50
2022-07-31T19:11:29.873Z,3.67
2022-07-31T19:13:57.628Z,4.30
2022-07-31T19:16:28.457Z,3.93
2022-07-31T19:18:57.135Z,3.00
2022-07-31T19:21:42.530Z,2.67
2022-07-31T19:24:10.964Z,2.70
2022-07-31T19:26:38.948Z,2.40
2022-07-31T19:29:06.959Z,3.07
2022-07-31T19:31:36.239Z,2.57
2022-07-31T19:34:04.151Z,2.00
2022-07-31T19:36:31.969Z,2.30
2022-07-31T19:38:59.933Z,2.03
2022-07-31T19:41:27.787Z,2.00
2022-07-31T19:43:55.604Z,3.17
2022-07-31T19:46:23.616Z,2.43
2022-07-31T19:48:54.256Z,2.23
2022-07-31T19:51:22.275Z,2.07
2022-07-31T19:53:50.112Z,3.90
2022-07-31T19:56:20.664Z,2.60
2022-07-31T19:58:50.044Z,2.77
2022-07-31T20:01:20.394Z,2.43
2022-07-31T20:03:48.790Z,3.17
2022-07-31T20:06:18.214Z,5.67
2022-07-31T20:08:46.385Z,9.57
2022-07-31T20:11:14.216Z,4.17
2022-07-31T20:13:42.145Z,7.40
2022-07-31T20:16:15.210Z,6.43
2022-07-31T20:18:43.542Z,6.50
2022-07-31T20:21:12.434Z,5.50
2022-07-31T20:23:41.980Z,5.30
2022-07-31T20:26:11.965Z,4.20
2022-07-31T20:28:41.059Z,4.43
2022-07-31T20:31:15.772Z,3.77
2022-07-31T20:33:48.912Z,4.37
2022-07-31T20:36:25.898Z,5.43
2022-07-31T20:38:55.402Z,6.77
2022-07-31T20:41:23.141Z,5.53
2022-07-31T20:43:50.876Z,5.80
2022-07-31T20:46:19.154Z,5.50
2022-07-31T20:48:47.193Z,5.93
2022-07-31T20:51:20.197Z,5.30
2022-07-31T20:53:48.342Z,6.23
2022-07-31T20:56:17.694Z,4.27
2022-07-31T20:58:51.176Z,4.63
2022-07-31T21:01:20.163Z,4.50
2022-07-31T21:03:48.115Z,5.10
2022-07-31T21:06:15.904Z,6.70
2022-07-31T21:08:43.592Z,7.63
2022-07-31T21:11:11.385Z,14.47
2022-07-31T21:13:41.869Z,17.13
2022-07-31T21:16:09.578Z,7.97
2022-07-31T21:18:43.026Z,12.93
2022-07-31T21:21:11.526Z,8.13
2022-07-31T21:23:39.299Z,6.57
2022-07-31T21:26:07.669Z,6.90
2022-07-31T21:28:36.024Z,5.07
2022-07-31T21:31:05.531Z,5.03
2022-07-31T21:33:34.025Z,12.33
2022-07-31T21:36:02.265Z,6.43
2022-07-31T21:38:30.199Z,10.90
2022-07-31T21:40:58.363Z,5.73
2022-07-31T21:43:30.360Z,4.37
2022-07-31T21:46:06.694Z,7.13
2022-07-31T21:48:38.169Z,4.87
2022-07-31T21:51:06.426Z,4.30
2022-07-31T21:53:35.508Z,4.30
2022-07-31T21:56:04.563Z,4.10
2022-07-31T21:58:32.206Z,3.90
2022-07-31T22:01:00.141Z,4.27
2022-07-31T22:03:29.372Z,4.33
2022-07-31T22:06:14.531Z,4.53
2022-07-31T22:08:42.369Z,3.97
2022-07-31T22:11:10.255Z,4.83
2022-07-31T22:13:38.155Z,4.00
2022-07-31T22:16:06.723Z,4.23
2022-07-31T22:18:36.598Z,7.20
2022-07-31T22:21:07.660Z,7.27
2022-07-31T22:23:36.086Z,6.40
2022-07-31T22:26:04.017Z,5.80
2022-07-31T22:28:32.359Z,5.63
2022-07-31T22:31:00.658Z,8.93
2022-07-31T22:33:28.716Z,5.37
2022-07-31T22:36:02.591Z,3.50
2022-07-31T22:38:31.349Z,4.97
2022-07-31T22:40:59.933Z,2.90
2022-07-31T22:44:12.832Z,3.50
2022-07-31T22:46:16.753Z,3.43
2022-07-31T22:48:46.665Z,2.60
2022-07-31T22:51:16.069Z,2.30
2022-07-31T22:53:44.319Z,2.83
2022-07-31T22:56:12.043Z,2.33
2022-07-31T22:58:39.742Z,2.80
2022-07-31T23:01:07.527Z,2.57
2022-07-31T23:03:35.206Z,3.03
2022-07-31T23:06:31.380Z,2.23
2022-07-31T23:08:54.717Z,2.80
2022-07-31T23:11:24.446Z,3.40
2022-07-31T23:13:52.324Z,3.23
2022-07-31T23:16:21.053Z,2.60
2022-07-31T23:18:48.802Z,3.23
2022-07-31T23:21:16.825Z,2.77
2022-07-31T23:23:48.752Z,3.10
2022-07-31T23:26:18.889Z,3.23
2022-07-31T23:28:46.953Z,4.70
2022-07-31T23:31:14.799Z,3.30
2022-07-31T23:33:42.714Z,3.20
2022-07-31T23:36:10.391Z,3.23
2022-07-31T23:38:38.177Z,3.27
2022-07-31T23:41:06.051Z,2.90
2022-07-31T23:43:34.548Z,3.10
2022-07-31T23:46:02.641Z,3.40
2022-07-31T23:48:31.208Z,3.30
2022-07-31T23:50:59.153Z,3.23
2022-07-31T23:53:27.009Z,3.67
2022-07-31T23:55:54.777Z,3.57
2022-07-31T23:58:22.428Z,3.40
